Time;durP1;ratioP1;P1;durP2;ratioP2;P2;SDS_P1;SDS_P2;PMS_P1;PMS_P2;Temp;Humidity;BMP_temperature;BMP_pressure;BME280_temperature;BME280_humidity;BME280_pressure;Samples;Min_cycle;Max_cycle;Signal;HPM_P1;HPM_P2
2023/05/01 00:00:51;;;;;;;6.15;2.30;;;;;;;16.30;57.11;98679.88;5031977;28;20034;-74
2023/05/01 00:03:17;;;;;;;4.18;1.80;;;;;;;16.26;57.14;98672.28;4981872;28;20065;-74
2023/05/01 00:05:43;;;;;;;3.33;2.38;;;;;;;16.28;57.22;98672.94;5013810;28;20041;-77
2023/05/01 00:08:09;;;;;;;4.30;2.25;;;;;;;16.31;57.11;98677.06;5030822;28;20037;-75
2023/05/01 00:10:35;;;;;;;3.13;2.00;;;;;;;16.30;57.03;98664.88;5035162;28;20551;-77
2023/05/01 00:13:01;;;;;;;2.40;1.73;;;;;;;16.30;57.20;98672.78;5017392;28;20030;-77
2023/05/01 00:15:26;;;;;;;5.43;2.20;;;;;;;16.27;57.04;98663.41;5035053;28;20128;-77
2023/05/01 00:17:52;;;;;;;2.17;1.70;;;;;;;16.26;57.19;98660.91;5017256;28;20100;-75
2023/05/01 00:20:18;;;;;;;3.80;1.67;;;;;;;16.32;57.26;98675.25;5035088;28;20037;-77
2023/05/01 00:22:43;;;;;;;2.75;1.80;;;;;;;16.31;57.28;98669.19;5017053;28;20037;-74
2023/05/01 00:25:09;;;;;;;2.45;1.75;;;;;;;16.30;57.10;98666.69;5034854;28;20128;-76
2023/05/01 00:27:35;;;;;;;5.22;2.10;;;;;;;16.27;57.04;98666.03;5017581;28;20037;-78
2023/05/01 00:30:00;;;;;;;6.00;2.20;;;;;;;16.24;57.13;98657.59;5017597;28;20150;-77
2023/05/01 00:32:26;;;;;;;4.47;1.85;;;;;;;16.21;56.98;98658.75;5017120;28;20096;-77
2023/05/01 00:34:51;;;;;;;2.45;1.70;;;;;;;16.20;57.09;98662.34;5034825;28;20488;-78
2023/05/01 00:37:17;;;;;;;3.67;1.80;;;;;;;16.17;57.08;98667.13;5034472;28;20041;-77
2023/05/01 00:39:42;;;;;;;3.10;2.00;;;;;;;16.14;56.95;98657.69;5034370;28;20511;-78
2023/05/01 00:42:08;;;;;;;5.38;2.03;;;;;;;16.13;57.09;98658.69;5033855;28;20042;-77
2023/05/01 00:44:33;;;;;;;2.47;1.80;;;;;;;16.11;57.10;98658.00;5034576;28;20119;-78
2023/05/01 00:47:01;;;;;;;4.20;2.00;;;;;;;16.07;57.13;98660.13;5034200;28;20493;-78
2023/05/01 00:49:26;;;;;;;3.75;1.90;;;;;;;16.03;57.00;98650.88;5034038;28;20389;-77
2023/05/01 00:51:52;;;;;;;3.08;1.92;;;;;;;15.97;56.96;98656.78;5016353;28;20045;-77
2023/05/01 00:54:18;;;;;;;3.40;1.90;;;;;;;16.00;56.99;98668.78;5015289;28;20420;-77
2023/05/01 00:56:45;;;;;;;2.58;2.05;;;;;;;15.98;56.63;98681.28;5016786;28;20029;-77
2023/05/01 00:59:11;;;;;;;4.40;1.80;;;;;;;15.93;56.66;98686.19;5016474;28;20037;-77
2023/05/01 01:01:36;;;;;;;2.67;1.83;;;;;;;15.91;56.60;98686.34;5016707;28;20038;-77
2023/05/01 01:04:02;;;;;;;4.00;1.75;;;;;;;15.87;56.76;98688.44;5034086;28;20052;-77
2023/05/01 01:06:34;;;;;;;3.28;2.00;;;;;;;15.86;56.74;98691.22;5034185;28;20042;-75
2023/05/01 01:09:15;;;;;;;3.25;1.92;;;;;;;15.85;56.62;98687.78;5016708;28;20128;-75
2023/05/01 01:12:19;;;;;;;3.45;2.05;;;;;;;15.83;56.66;98683.63;5034040;28;20559;-76
2023/05/01 01:14:49;;;;;;;2.58;2.05;;;;;;;15.79;56.82;98688.38;5003301;28;20415;-76
2023/05/01 01:17:28;;;;;;;4.68;2.13;;;;;;;15.77;56.81;98686.91;5000331;28;20176;-75
2023/05/01 01:20:12;;;;;;;;;;;;;;;15.82;56.67;98695.16;4984911;28;20519;-75
2023/05/01 01:22:39;;;;;;;5.72;2.25;;;;;;;15.72;56.70;98690.75;5033996;28;19909;-75
2023/05/01 01:25:32;;;;;;;4.68;2.63;;;;;;;15.73;56.61;98697.69;5015955;28;20108;-78
2023/05/01 01:28:20;;;;;;;2.70;1.95;;;;;;;15.69;56.80;98685.81;5000469;28;20045;-77
2023/05/01 01:30:55;;;;;;;;;;;;;;;15.69;56.75;98691.06;5017252;28;20527;-76
2023/05/01 01:33:53;;;;;;;4.72;1.95;;;;;;;15.59;56.82;98689.47;5016479;28;20057;-77
2023/05/01 01:36:20;;;;;;;;;;;;;;;15.62;56.86;98699.69;5018925;28;20042;-75
2023/05/01 01:38:46;;;;;;;4.20;2.10;;;;;;;15.56;56.87;98695.88;5015974;28;19909;-78
2023/05/01 01:41:16;;;;;;;3.47;1.90;;;;;;;15.54;56.81;98696.03;5032264;28;20044;-76
2023/05/01 01:43:49;;;;;;;5.85;2.25;;;;;;;15.53;56.76;98694.38;5015293;28;20104;-75
2023/05/01 01:46:16;;;;;;;2.25;1.77;;;;;;;15.50;56.71;98689.41;5014962;28;20041;-75
2023/05/01 01:48:42;;;;;;;3.92;2.00;;;;;;;15.48;56.66;98691.38;5015517;28;20080;-76
2023/05/01 01:51:11;;;;;;;3.88;1.90;;;;;;;15.46;56.65;98692.47;5015691;28;20037;-76
2023/05/01 01:53:36;;;;;;;3.22;2.10;;;;;;;15.43;56.74;98685.72;5015771;28;20041;-75
2023/05/01 01:56:06;;;;;;;2.85;1.63;;;;;;;15.46;56.67;98697.75;5015537;28;20037;-76
2023/05/01 01:58:32;;;;;;;4.63;2.20;;;;;;;15.40;56.69;98688.63;5015049;28;20393;-76
2023/05/01 02:00:57;;;;;;;3.65;2.00;;;;;;;15.36;56.68;98690.75;5032003;28;20569;-75
2023/05/01 02:03:23;;;;;;;4.70;2.80;;;;;;;15.38;56.66;98704.56;5015742;28;20037;-76
2023/05/01 02:05:48;;;;;;;2.85;1.90;;;;;;;15.38;56.76;98699.31;5015747;28;20045;-75
2023/05/01 02:08:13;;;;;;;2.08;1.67;;;;;;;15.35;56.82;98696.16;5015303;28;20056;-75
2023/05/01 02:10:40;;;;;;;2.97;1.80;;;;;;;15.36;56.83;98703.91;5032795;28;20041;-76
2023/05/01 02:13:06;;;;;;;2.38;1.60;;;;;;;15.36;56.63;98703.06;5033007;28;20087;-75
2023/05/01 02:15:31;;;;;;;4.47;1.70;;;;;;;15.38;56.73;98706.38;5014819;28;20496;-75
2023/05/01 02:17:57;;;;;;;2.85;1.80;;;;;;;15.35;56.66;98707.53;5015015;28;20102;-75
2023/05/01 02:20:22;;;;;;;2.63;1.83;;;;;;;15.38;56.65;98703.75;5015245;28;20046;-76
2023/05/01 02:22:48;;;;;;;3.28;1.70;;;;;;;15.38;56.63;98714.25;5015443;28;20456;-76
2023/05/01 02:25:14;;;;;;;2.85;2.08;;;;;;;15.35;56.82;98715.41;4982223;28;20571;-79
2023/05/01 02:27:43;;;;;;;2.42;1.85;;;;;;;15.35;56.79;98723.31;5015592;28;20113;-76
2023/05/01 02:30:10;;;;;;;2.42;1.90;;;;;;;15.34;56.79;98728.72;4998405;28;20419;-76
2023/05/01 02:32:36;;;;;;;3.08;1.80;;;;;;;15.35;56.84;98732.97;5014847;28;20056;-77
2023/05/01 02:35:02;;;;;;;2.92;2.10;;;;;;;15.34;56.78;98728.72;5032738;28;20067;-77
2023/05/01 02:37:29;;;;;;;2.97;1.88;;;;;;;15.32;56.70;98726.22;5032860;28;20037;-76
2023/05/01 02:39:55;;;;;;;3.60;1.60;;;;;;;15.30;56.81;98724.72;5032382;28;20069;-75
2023/05/01 02:42:21;;;;;;;4.80;1.80;;;;;;;15.30;56.66;98724.72;5015164;28;20073;-76
2023/05/01 02:44:54;;;;;;;4.07;1.80;;;;;;;15.25;56.75;98716.44;5014662;28;20037;-75
2023/05/01 02:47:20;;;;;;;5.32;1.70;;;;;;;15.26;56.77;98725.97;5030339;28;20029;-75
2023/05/01 02:49:46;;;;;;;3.15;1.95;;;;;;;15.21;56.73;98718.50;5014817;28;20091;-75
2023/05/01 02:52:13;;;;;;;2.75;1.70;;;;;;;15.20;56.75;98730.03;5014831;28;20037;-75
2023/05/01 02:54:38;;;;;;;2.60;1.73;;;;;;;15.21;56.65;98739.53;4998178;28;20045;-75
2023/05/01 02:57:04;;;;;;;2.70;1.80;;;;;;;15.17;56.63;98741.66;5014820;28;20501;-76
2023/05/01 02:59:30;;;;;;;4.97;1.77;;;;;;;15.16;56.59;98745.28;5014440;28;20120;-76
2023/05/01 03:01:56;;;;;;;5.40;2.10;;;;;;;15.17;56.74;98753.97;5015090;28;20048;-78
2023/05/01 03:04:21;;;;;;;3.22;2.00;;;;;;;15.17;56.55;98748.72;5032014;28;20037;-77
2023/05/01 03:06:47;;;;;;;2.55;2.00;;;;;;;15.11;56.68;98742.22;5032190;28;20042;-77
2023/05/01 03:09:12;;;;;;;3.55;1.92;;;;;;;15.14;56.80;98754.28;5014421;28;20050;-77
2023/05/01 03:11:38;;;;;;;7.18;2.10;;;;;;;15.14;56.62;98749.81;5013949;28;20038;-77
2023/05/01 03:14:03;;;;;;;5.43;2.25;;;;;;;15.16;56.65;98752.31;5031822;28;20049;-77
2023/05/01 03:16:29;;;;;;;2.47;1.88;;;;;;;15.15;56.63;98751.50;5031765;28;20033;-77
2023/05/01 03:18:54;;;;;;;2.97;1.95;;;;;;;15.12;56.73;98754.41;5013948;28;20037;-77
2023/05/01 03:21:20;;;;;;;7.15;1.95;;;;;;;15.12;56.70;98754.41;5032055;28;20041;-77
2023/05/01 03:23:46;;;;;;;3.15;1.92;;;;;;;15.13;56.51;98755.22;5031988;28;20489;-77
2023/05/01 03:26:11;;;;;;;4.88;2.00;;;;;;;15.15;56.62;98750.69;5031698;28;20053;-77
2023/05/01 03:28:37;;;;;;;3.00;1.95;;;;;;;15.15;56.42;98755.94;5031852;28;20030;-76
2023/05/01 03:31:02;;;;;;;3.30;2.00;;;;;;;15.16;56.39;98752.31;5014794;28;20420;-77
2023/05/01 03:33:28;;;;;;;2.83;2.00;;;;;;;15.15;56.29;98746.25;5031860;28;20030;-77
2023/05/01 03:36:04;;;;;;;2.88;2.10;;;;;;;15.26;56.05;98757.53;4997715;28;20049;-76
2023/05/01 03:38:32;;;;;;;3.63;2.00;;;;;;;15.61;55.37;98753.28;5014457;28;20508;-76
2023/05/01 03:40:58;;;;;;;;;;;;;;;16.47;53.48;98752.75;5014471;28;20100;-74
2023/05/01 03:43:24;;;;;;;2.10;1.67;;;;;;;17.15;51.82;98759.91;5033366;28;19909;-77
2023/05/01 03:45:50;;;;;;;3.50;1.63;;;;;;;17.81;50.34;98759.28;5035616;28;20412;-77
2023/05/01 03:48:17;;;;;;;3.28;1.90;;;;;;;18.43;48.86;98748.25;5035701;28;20044;-76
2023/05/01 03:50:42;;;;;;;2.58;1.83;;;;;;;19.14;47.49;98759.00;5035722;28;20047;-77
2023/05/01 03:53:08;;;;;;;3.83;1.90;;;;;;;19.79;45.54;98752.56;5035625;28;20413;-75
2023/05/01 03:55:33;;;;;;;2.95;2.00;;;;;;;20.50;44.18;98754.16;5035255;28;20119;-75
2023/05/01 03:57:59;;;;;;;5.15;2.08;;;;;;;21.12;42.02;98764.41;5035429;28;20424;-74
2023/05/01 04:00:24;;;;;;;3.28;1.90;;;;;;;21.84;41.18;98764.69;5035381;28;20037;-74
2023/05/01 04:02:51;;;;;;;2.83;1.90;;;;;;;22.56;39.34;98765.50;5017861;28;20116;-74
2023/05/01 04:05:17;;;;;;;6.47;1.80;;;;;;;23.11;38.25;98766.47;5035051;28;20038;-74
2023/05/01 04:07:42;;;;;;;2.45;1.92;;;;;;;23.83;36.47;98766.97;5035075;28;20037;-75
2023/05/01 04:10:08;;;;;;;3.58;2.00;;;;;;;24.41;36.11;98772.75;5034893;28;20044;-75
2023/05/01 04:12:34;;;;;;;3.08;1.80;;;;;;;25.06;34.35;98773.72;5035409;28;20069;-75
2023/05/01 04:15:00;;;;;;;4.03;1.80;;;;;;;25.58;33.96;98778.25;5035137;28;20448;-75
2023/05/01 04:17:25;;;;;;;2.65;1.70;;;;;;;26.24;33.17;98777.03;5034808;28;20073;-74
2023/05/01 04:19:51;;;;;;;2.67;1.67;;;;;;;26.87;31.75;98778.75;5035021;28;20037;-74
2023/05/01 04:22:16;;;;;;;4.28;1.80;;;;;;;27.48;30.39;98784.25;5034514;28;20072;-75
2023/05/01 04:24:42;;;;;;;4.18;2.00;;;;;;;28.05;29.21;98781.22;5034387;28;20049;-75
2023/05/01 04:27:08;;;;;;;4.95;1.77;;;;;;;28.64;28.21;98783.22;5016731;28;20060;-75
2023/05/01 04:29:33;;;;;;;4.20;1.92;;;;;;;29.22;27.67;98786.88;5034480;28;20072;-74
2023/05/01 04:31:59;;;;;;;3.88;2.10;;;;;;;29.72;26.72;98788.13;5035031;28;20396;-74
2023/05/01 04:34:28;;;;;;;4.32;1.90;;;;;;;30.22;26.25;98786.56;5034565;28;20037;-74
2023/05/01 04:36:54;;;;;;;8.63;2.15;;;;;;;30.77;25.13;98796.59;5017267;28;20069;-74
2023/05/01 04:39:19;;;;;;;3.50;2.05;;;;;;;31.25;24.05;98801.56;5034367;28;20030;-74
2023/05/01 04:41:45;;;;;;;7.43;2.13;;;;;;;31.70;23.63;98811.28;5034842;28;20048;-74
2023/05/01 04:44:10;;;;;;;2.60;1.67;;;;;;;32.23;23.01;98814.25;5034476;28;20037;-74
2023/05/01 04:46:36;;;;;;;3.50;1.83;;;;;;;32.68;22.36;98815.69;5016525;28;20050;-74
2023/05/01 04:49:01;;;;;;;10.32;2.30;;;;;;;33.18;21.44;98811.69;5034224;28;20037;-74
2023/05/01 04:51:27;;;;;;;3.60;2.10;;;;;;;33.67;20.95;98818.63;5034551;28;20069;-74
2023/05/01 04:53:54;;;;;;;3.92;2.00;;;;;;;34.09;20.33;98819.53;5033830;28;20072;-73
2023/05/01 04:56:20;;;;;;;5.85;1.85;;;;;;;34.44;20.10;98815.22;5034260;28;20480;-73
2023/05/01 04:58:45;;;;;;;4.80;1.80;;;;;;;34.89;20.35;98810.03;5016307;28;20064;-74
2023/05/01 05:01:11;;;;;;;4.25;1.90;;;;;;;35.42;20.00;98820.44;5033960;28;20092;-74
2023/05/01 05:03:36;;;;;;;3.17;1.70;;;;;;;35.86;19.84;98814.25;5016451;28;20116;-75
2023/05/01 05:06:02;;;;;;;5.43;1.70;;;;;;;35.91;19.78;98818.81;5034373;28;20041;-76
2023/05/01 05:08:28;;;;;;;7.50;1.60;;;;;;;34.20;21.02;98821.16;5033729;28;20473;-74
2023/05/01 05:10:58;;;;;;;7.55;1.80;;;;;;;34.26;20.32;98832.84;5032164;28;20116;-77
2023/05/01 05:13:24;;;;;;;3.70;1.77;;;;;;;35.27;19.35;98835.69;4999944;28;20043;-75
2023/05/01 05:15:49;;;;;;;4.30;1.70;;;;;;;35.45;19.23;98842.38;5016578;28;20045;-75
2023/05/01 05:18:15;;;;;;;6.15;1.50;;;;;;;35.91;18.84;98843.28;5034039;28;20044;-74
2023/05/01 05:20:40;;;;;;;9.18;1.92;;;;;;;36.42;18.34;98853.81;5016286;28;20393;-75
2023/05/01 05:23:06;;;;;;;5.63;1.50;;;;;;;36.97;17.93;98855.47;4999095;28;20081;-75
2023/05/01 05:25:32;;;;;;;5.30;1.35;;;;;;;37.21;17.90;98861.78;5023789;28;20045;-77
2023/05/01 05:27:58;;;;;;;4.07;1.38;;;;;;;35.27;18.88;98864.75;5013769;28;20529;-75
2023/05/01 05:30:24;;;;;;;6.27;1.67;;;;;;;34.06;19.73;98874.22;4996487;28;20555;-75
2023/05/01 05:32:49;;;;;;;5.40;1.52;;;;;;;33.32;20.83;98874.22;5013949;28;20038;-74
2023/05/01 05:35:15;;;;;;;5.28;2.05;;;;;;;33.11;21.29;98877.88;4996157;28;20413;-75
2023/05/01 05:37:40;;;;;;;4.97;1.85;;;;;;;32.80;21.71;98886.59;5013405;28;20060;-75
2023/05/01 05:40:06;;;;;;;5.03;2.00;;;;;;;32.14;22.15;98876.03;5013962;28;20038;-77
2023/05/01 05:42:32;;;;;;;4.00;2.00;;;;;;;31.48;22.68;98882.22;4996153;28;20053;-78
2023/05/01 05:44:58;;;;;;;3.38;2.20;;;;;;;32.60;21.94;98883.72;4980033;28;20052;-77
2023/05/01 05:47:23;;;;;;;4.55;2.10;;;;;;;33.48;21.58;98885.13;4979265;28;20041;-73
2023/05/01 05:49:49;;;;;;;6.15;1.88;;;;;;;34.10;20.81;98888.06;5013236;28;20053;-74
2023/05/01 05:52:15;;;;;;;3.47;1.92;;;;;;;34.66;20.12;98898.94;4979008;28;20046;-76
2023/05/01 05:54:40;;;;;;;3.50;1.73;;;;;;;35.18;19.75;98896.19;4996130;28;20100;-75
2023/05/01 05:57:06;;;;;;;3.05;1.88;;;;;;;35.59;19.62;98902.31;5013332;28;20125;-74
2023/05/01 05:59:31;;;;;;;4.78;1.92;;;;;;;36.03;18.71;98904.31;4979404;28;20033;-74
2023/05/01 06:01:57;;;;;;;4.30;1.90;;;;;;;36.22;18.72;98899.00;5013346;28;20044;-75
2023/05/01 06:04:23;;;;;;;4.47;2.10;;;;;;;36.52;18.29;98899.09;5013009;28;20567;-75
2023/05/01 06:06:48;;;;;;;4.78;1.90;;;;;;;36.80;18.15;98911.13;5012635;28;20133;-75
2023/05/01 06:09:16;;;;;;;2.15;1.50;;;;;;;36.99;18.15;98913.94;4996009;28;20044;-77
2023/05/01 06:11:41;;;;;;;3.60;1.63;;;;;;;37.18;18.08;98916.75;5013087;28;20485;-75
2023/05/01 06:14:07;;;;;;;3.58;1.65;;;;;;;37.28;17.94;98916.66;5013024;28;20041;-76
2023/05/01 06:16:33;;;;;;;3.40;1.70;;;;;;;37.45;17.83;98924.34;5013256;28;20045;-76
2023/05/01 06:18:58;;;;;;;6.57;1.65;;;;;;;37.49;17.24;98932.75;5012779;28;20037;-75
2023/05/01 06:21:24;;;;;;;3.78;1.52;;;;;;;37.55;17.71;98923.41;5012656;28;20042;-75
2023/05/01 06:23:49;;;;;;;3.95;1.60;;;;;;;37.58;17.27;98922.84;4994850;28;20041;-77
2023/05/01 06:26:15;;;;;;;4.30;1.50;;;;;;;37.66;17.45;98929.56;4995126;28;20555;-76
2023/05/01 06:28:40;;;;;;;4.40;1.70;;;;;;;37.75;17.29;98932.44;4978667;28;20097;-76
2023/05/01 06:31:06;;;;;;;3.38;1.70;;;;;;;37.79;17.15;98936.22;5012848;28;20416;-75
2023/05/01 06:33:33;;;;;;;5.70;1.58;;;;;;;37.81;16.95;98939.47;5012631;28;20038;-75
2023/05/01 06:35:58;;;;;;;8.25;1.25;;;;;;;37.70;20.05;98937.97;5012375;28;20037;-72
2023/05/01 06:38:25;;;;;;;8.50;1.20;;;;;;;37.21;20.95;98937.97;5012665;28;20037;-71
2023/05/01 06:40:50;;;;;;;5.53;1.38;;;;;;;36.85;21.14;98942.91;4994709;28;20045;-73
2023/05/01 06:43:16;;;;;;;20.20;1.55;;;;;;;36.55;21.66;98939.31;4994997;28;20041;-70
2023/05/01 06:45:42;;;;;;;10.75;1.45;;;;;;;36.12;21.40;98953.44;4995022;28;20073;-70
2023/05/01 06:48:07;;;;;;;4.72;1.17;;;;;;;35.76;21.25;98956.31;4978676;28;20026;-73
2023/05/01 06:50:33;;;;;;;9.65;1.60;;;;;;;35.54;21.75;98964.78;5012488;28;20048;-74
2023/05/01 06:52:59;;;;;;;7.43;1.23;;;;;;;35.37;21.90;98967.81;4967519;28;20120;-74
2023/05/01 06:55:25;;;;;;;5.28;1.65;;;;;;;35.15;21.51;98974.34;4997174;28;20489;-75
2023/05/01 06:57:51;;;;;;;5.82;1.30;;;;;;;34.89;21.80;98973.53;5014764;28;20034;-73
2023/05/01 07:00:17;;;;;;;4.35;1.75;;;;;;;34.82;21.37;98977.59;5014708;28;20413;-72
2023/05/01 07:02:45;;;;;;;12.45;2.75;;;;;;;34.94;21.83;98984.38;5016783;28;20036;-72
2023/05/01 07:05:11;;;;;;;6.90;1.70;;;;;;;34.85;21.82;98985.19;5030914;28;20044;-72
2023/05/01 07:07:37;;;;;;;4.70;1.70;;;;;;;34.75;21.67;98986.00;4997633;28;20041;-72
2023/05/01 07:10:03;;;;;;;4.93;1.42;;;;;;;34.68;21.67;98996.25;5014701;28;20046;-74
2023/05/01 07:12:28;;;;;;;5.55;1.70;;;;;;;34.68;21.82;99005.22;5010667;28;20041;-73
2023/05/01 07:14:55;;;;;;;8.10;1.50;;;;;;;34.66;21.77;99001.94;4999338;28;20428;-71
2023/05/01 07:17:21;;;;;;;12.10;1.83;;;;;;;34.75;22.19;99013.94;5014916;28;20065;-73
2023/05/01 07:19:46;;;;;;;5.05;1.60;;;;;;;34.92;21.71;99010.97;5017532;28;20041;-70
2023/05/01 07:22:12;;;;;;;4.72;1.60;;;;;;;35.15;21.62;99009.63;5035997;28;20041;-71
2023/05/01 07:24:37;;;;;;;2.83;1.65;;;;;;;35.30;20.97;99008.81;5035584;28;20045;-72
2023/05/01 07:27:03;;;;;;;4.40;1.55;;;;;;;35.41;20.91;99009.59;5035990;28;20107;-71
2023/05/01 07:29:28;;;;;;;2.92;1.40;;;;;;;35.56;20.49;99016.09;5018021;28;20049;-73
2023/05/01 07:31:54;;;;;;;3.45;1.50;;;;;;;35.56;20.83;99016.09;5001492;28;20045;-71
2023/05/01 07:34:20;;;;;;;4.32;1.90;;;;;;;35.56;20.96;99013.38;5001612;28;20038;-70
2023/05/01 07:36:45;;;;;;;6.65;2.55;;;;;;;35.69;20.59;99016.31;5035445;28;20033;-72
2023/05/01 07:39:12;;;;;;;3.30;1.80;;;;;;;35.72;20.97;99012.22;5000850;28;20185;-72
2023/05/01 07:41:38;;;;;;;14.88;2.13;;;;;;;35.66;20.11;99011.44;5035662;28;20037;-71
2023/05/01 07:44:03;;;;;;;5.30;2.28;;;;;;;35.71;20.58;99009.78;5035641;28;20041;-70
2023/05/01 07:46:29;;;;;;;4.45;2.80;;;;;;;35.76;20.85;99010.63;5035770;28;20083;-71
2023/05/01 07:48:54;;;;;;;7.47;2.65;;;;;;;35.80;21.20;99008.16;5016253;28;20040;-73
2023/05/01 07:51:20;;;;;;;8.75;2.10;;;;;;;35.88;20.95;99010.28;5021978;28;20115;-73
2023/05/01 07:53:46;;;;;;;4.07;2.08;;;;;;;35.96;20.39;99011.63;4981842;28;20038;-74
2023/05/01 07:56:12;;;;;;;7.68;2.10;;;;;;;36.02;20.12;99016.75;5009341;28;20571;-73
2023/05/01 07:58:39;;;;;;;7.13;1.73;;;;;;;36.05;19.76;99016.19;5017707;28;20022;-74
2023/05/01 08:01:05;;;;;;;5.03;1.77;;;;;;;36.06;19.77;99014.31;5018288;28;20029;-74
2023/05/01 08:03:31;;;;;;;4.68;1.67;;;;;;;35.96;19.84;99015.19;5017754;28;20061;-74
2023/05/01 08:05:57;;;;;;;4.38;1.70;;;;;;;35.91;19.90;99017.91;5017363;28;20084;-73
2023/05/01 08:08:22;;;;;;;4.95;1.88;;;;;;;35.78;19.34;99021.22;5034142;28;20037;-74
2023/05/01 08:10:48;;;;;;;5.47;1.70;;;;;;;35.53;19.23;99016.63;5035714;28;20048;-72
2023/05/01 08:13:13;;;;;;;7.22;1.63;;;;;;;35.53;19.35;99014.72;5035189;28;20068;-73
2023/05/01 08:15:41;;;;;;;5.85;1.90;;;;;;;35.37;19.83;99013.13;5034749;28;20045;-75
2023/05/01 08:18:07;;;;;;;8.43;1.63;;;;;;;35.25;20.06;99014.25;5017681;28;20523;-73
2023/05/01 08:20:34;;;;;;;3.50;1.80;;;;;;;35.01;20.56;99018.56;5033934;28;20428;-73
2023/05/01 08:23:00;;;;;;;4.30;1.70;;;;;;;35.14;20.11;99026.97;5035159;28;20061;-73
2023/05/01 08:25:25;;;;;;;4.43;1.70;;;;;;;35.19;20.16;99030.75;5016943;28;20491;-74
2023/05/01 08:27:51;;;;;;;3.30;1.35;;;;;;;35.15;20.16;99020.47;4983979;28;20037;-76
2023/05/01 08:30:16;;;;;;;3.28;1.60;;;;;;;35.09;19.98;99018.00;5016846;28;20053;-73
2023/05/01 08:32:42;;;;;;;5.38;1.55;;;;;;;35.08;20.21;99025.34;5034789;28;20456;-78
2023/05/01 08:35:08;;;;;;;3.55;1.50;;;;;;;34.95;20.37;99018.56;5000640;28;20041;-78
2023/05/01 08:37:34;;;;;;;2.50;1.48;;;;;;;34.86;20.19;99030.22;5027488;28;20121;-76
2023/05/01 08:39:59;;;;;;;4.78;1.48;;;;;;;34.83;19.45;99025.34;5011936;28;20461;-78
2023/05/01 08:42:26;;;;;;;4.65;1.60;;;;;;;34.79;19.08;99025.88;5014680;28;20484;-75
2023/05/01 08:44:53;;;;;;;5.17;1.60;;;;;;;34.33;18.51;99024.94;4999795;28;20179;-77
2023/05/01 08:47:20;;;;;;;7.03;1.50;;;;;;;34.32;18.74;99017.91;5016942;28;20081;-77
2023/05/01 08:49:46;;;;;;;2.90;1.40;;;;;;;34.19;18.39;99009.16;5000516;28;20034;-75
2023/05/01 08:52:12;;;;;;;3.47;1.50;;;;;;;33.85;18.51;99023.09;5000535;28;20041;-77
2023/05/01 08:54:39;;;;;;;6.38;1.65;;;;;;;33.66;18.60;99017.28;5016854;28;20045;-75
2023/05/01 08:57:05;;;;;;;7.95;1.73;;;;;;;33.36;19.07;99018.69;5000671;28;20044;-76
2023/05/01 08:59:35;;;;;;;5.72;1.48;;;;;;;32.85;19.63;99028.28;5034396;28;20046;-75
2023/05/01 09:02:03;;;;;;;3.03;1.33;;;;;;;32.54;19.73;99028.75;5000342;28;20132;-77
2023/05/01 09:04:31;;;;;;;5.60;1.55;;;;;;;32.24;20.10;99021.13;5016853;28;20072;-75
2023/05/01 09:07:00;;;;;;;5.97;1.50;;;;;;;31.87;20.13;99025.25;5000643;28;20056;-77
2023/05/01 09:09:27;;;;;;;4.43;1.38;;;;;;;31.33;20.67;99020.41;5000056;28;20041;-75
2023/05/01 09:12:04;;;;;;;4.28;1.70;;;;;;;31.06;20.96;99022.09;5016471;28;20045;-76
2023/05/01 09:14:30;;;;;;;5.88;1.42;;;;;;;30.81;21.09;99017.91;5001195;28;20073;-75
2023/05/01 09:16:55;;;;;;;8.05;1.75;;;;;;;30.50;21.84;99014.63;5034039;28;20140;-75
2023/05/01 09:19:21;;;;;;;2.72;1.40;;;;;;;30.12;22.04;99022.22;5034020;28;20029;-74
2023/05/01 09:21:46;;;;;;;4.43;1.48;;;;;;;29.77;22.37;99031.16;4999870;28;20076;-78
2023/05/01 09:24:12;;;;;;;7.18;1.83;;;;;;;29.42;22.96;99034.66;5033819;28;20029;-78
2023/05/01 09:26:41;;;;;;;6.00;1.80;;;;;;;29.12;23.02;99037.41;4999791;28;20153;-76
2023/05/01 09:29:09;;;;;;;4.35;1.80;;;;;;;28.80;23.21;99024.25;4999855;28;20527;-76
2023/05/01 09:31:35;;;;;;;6.20;1.75;;;;;;;28.51;23.77;99029.38;5016239;28;20045;-75
2023/05/01 09:34:04;;;;;;;6.97;2.05;;;;;;;28.27;23.01;99031.09;4999172;28;20044;-75
2023/05/01 09:36:31;;;;;;;4.38;1.50;;;;;;;27.85;23.74;99038.16;4999970;28;20045;-75
2023/05/01 09:38:59;;;;;;;4.68;1.50;;;;;;;27.70;24.03;99046.56;4999626;28;20408;-76
2023/05/01 09:41:25;;;;;;;5.07;1.88;;;;;;;27.57;24.28;99044.84;5015260;28;20038;-76
2023/05/01 09:43:56;;;;;;;10.88;1.88;;;;;;;27.46;24.17;99045.56;5016162;28;20049;-75
2023/05/01 09:46:22;;;;;;;7.20;1.88;;;;;;;27.39;24.81;99049.13;4999958;28;20124;-76
2023/05/01 09:48:58;;;;;;;4.80;1.70;;;;;;;27.36;24.54;99040.72;5015670;28;20076;-73
2023/05/01 09:51:30;;;;;;;3.95;1.85;;;;;;;27.37;24.90;99040.50;5015654;28;20037;-77
2023/05/01 09:54:00;;;;;;;2.97;1.45;;;;;;;27.38;24.90;99038.63;4999185;28;20040;-76
2023/05/01 09:56:26;;;;;;;5.47;1.90;;;;;;;27.34;24.93;99053.50;4999428;28;20039;-76
2023/05/01 09:58:52;;;;;;;4.30;2.00;;;;;;;27.33;25.11;99043.81;5015594;28;20021;-75
2023/05/01 10:01:20;;;;;;;5.43;1.88;;;;;;;27.36;24.64;99049.56;4999464;28;20045;-77
2023/05/01 10:03:51;;;;;;;3.75;1.80;;;;;;;27.29;24.83;99061.34;4999291;28;20042;-77
2023/05/01 10:06:27;;;;;;;5.82;1.70;;;;;;;27.21;24.87;99054.38;4999848;28;20041;-76
2023/05/01 10:08:53;;;;;;;4.07;1.80;;;;;;;27.17;24.09;99056.69;5015157;28;20041;-76
2023/05/01 10:11:18;;;;;;;4.43;1.60;;;;;;;27.02;24.51;99050.81;5015334;28;20108;-76
2023/05/01 10:13:44;;;;;;;10.57;1.75;;;;;;;26.99;24.33;99053.91;5015503;28;20056;-76
2023/05/01 10:16:27;;;;;;;4.82;1.80;;;;;;;26.95;24.31;99050.06;4999193;28;20049;-76
2023/05/01 10:18:54;;;;;;;3.17;1.80;;;;;;;27.02;24.54;99056.16;5015555;28;20045;-77
2023/05/01 10:21:20;;;;;;;3.27;1.67;;;;;;;27.10;24.53;99050.53;4998069;28;20057;-77
2023/05/01 10:23:45;;;;;;;5.65;1.80;;;;;;;27.33;24.45;99051.88;4982507;28;20416;-75
2023/05/01 10:26:12;;;;;;;5.82;1.60;;;;;;;27.37;24.22;99045.00;4982443;28;20136;-75
2023/05/01 10:28:38;;;;;;;7.30;2.40;;;;;;;27.53;24.20;99049.00;5015246;28;20026;-74
2023/05/01 10:31:03;;;;;;;3.88;1.92;;;;;;;27.52;23.64;99034.78;5015277;28;20100;-77
2023/05/01 10:33:29;;;;;;;3.28;1.52;;;;;;;27.64;23.88;99031.38;4998649;28;20037;-78
2023/05/01 10:35:56;;;;;;;5.32;1.60;;;;;;;27.78;23.66;99035.56;4998621;28;20038;-75
2023/05/01 10:38:24;;;;;;;2.50;1.52;;;;;;;27.89;24.00;99044.75;4998471;28;20132;-73
2023/05/01 10:40:50;;;;;;;4.20;1.80;;;;;;;27.94;23.33;99036.84;4998384;28;20527;-74
2023/05/01 10:43:27;;;;;;;3.72;1.60;;;;;;;28.00;23.36;99027.13;5025295;28;20042;-72
2023/05/01 10:46:14;;;;;;;4.32;1.98;;;;;;;27.91;23.54;99022.03;5010877;28;20040;-72
2023/05/01 10:48:39;;;;;;;3.40;1.50;;;;;;;27.85;23.72;99024.75;4994007;28;20417;-76
2023/05/01 10:51:14;;;;;;;3.95;1.60;;;;;;;27.80;24.13;99031.63;5012606;28;20034;-77
2023/05/01 10:54:11;;;;;;;5.53;1.55;;;;;;;27.76;24.23;99027.72;4994771;28;20045;-73
2023/05/01 10:56:37;;;;;;;2.97;1.50;;;;;;;27.82;23.75;99033.25;5012382;28;20478;-74
2023/05/01 10:59:05;;;;;;;5.28;1.58;;;;;;;27.79;24.15;99023.81;5012500;28;20080;-73
2023/05/01 11:01:41;;;;;;;3.85;1.50;;;;;;;27.71;23.97;99016.06;4995449;28;20042;-75
2023/05/01 11:04:27;;;;;;;2.67;1.40;;;;;;;27.67;24.17;99015.66;4978196;28;20468;-75
2023/05/01 11:07:04;;;;;;;4.25;1.60;;;;;;;27.61;23.93;99021.91;5012109;28;20037;-75
2023/05/01 11:09:44;;;;;;;5.13;1.70;;;;;;;27.54;24.23;99013.91;5011994;28;20038;-75
2023/05/01 11:12:14;;;;;;;3.75;1.63;;;;;;;27.55;24.49;99022.81;4979201;28;20137;-74
2023/05/01 11:15:16;;;;;;;7.65;1.80;;;;;;;27.48;24.42;99014.81;4994621;28;20094;-74
2023/05/01 11:17:40;;;;;;;3.35;1.50;;;;;;;27.47;24.80;99026.59;5011491;28;20034;-74
2023/05/01 11:20:07;;;;;;;4.18;1.60;;;;;;;27.41;25.06;99025.59;5012254;28;20527;-76
2023/05/01 11:22:33;;;;;;;6.10;1.80;;;;;;;27.38;25.41;99025.22;4994916;28;20034;-76
2023/05/01 11:24:59;;;;;;;3.63;1.60;;;;;;;27.34;25.41;99021.31;4993528;28;20068;-76
2023/05/01 11:27:25;;;;;;;3.35;1.85;;;;;;;27.31;25.51;99019.09;4995027;28;20078;-77
2023/05/01 11:29:52;;;;;;;6.90;2.05;;;;;;;27.25;28.21;99024.25;4994609;28;20034;-76
2023/05/01 11:32:18;;;;;;;8.27;1.77;;;;;;;27.12;29.54;99021.69;4994799;28;20489;-76
2023/05/01 11:34:44;;;;;;;12.15;2.17;;;;;;;27.14;30.01;99024.16;4962197;28;20049;-76